createdAt,value
2018-12-05T00:00:59.172Z,2.61
2018-12-05T00:01:58.648Z,2.64
2018-12-05T00:02:58.631Z,2.74
2018-12-05T00:03:59.128Z,2.76
2018-12-05T00:04:59.094Z,2.74
2018-12-05T00:05:58.561Z,2.77
2018-12-05T00:06:58.794Z,2.73
2018-12-05T00:07:58.767Z,2.77
2018-12-05T00:08:58.849Z,2.74
2018-12-05T00:09:58.719Z,2.84
2018-12-05T00:10:58.704Z,2.84
2018-12-05T00:11:58.704Z,2.95
2018-12-05T00:12:58.654Z,2.88
2018-12-05T00:13:59.110Z,2.91
2018-12-05T00:14:58.615Z,2.92
2018-12-05T00:15:58.601Z,3
2018-12-05T00:16:58.575Z,3.05
2018-12-05T00:17:58.551Z,2.97
2018-12-05T00:18:58.773Z,3
2018-12-05T00:19:58.759Z,3.05
2018-12-05T00:20:58.827Z,3.05
2018-12-05T00:21:58.462Z,2.97
2018-12-05T00:22:58.689Z,2.98
2018-12-05T00:23:58.156Z,2.97
2018-12-05T00:24:58.401Z,3
2018-12-05T00:25:58.367Z,3.05
2018-12-05T00:26:58.602Z,2.97
2018-12-05T00:27:58.334Z,2.97
2018-12-05T00:28:58.301Z,2.94
2018-12-05T00:29:58.019Z,3.02
2018-12-05T00:30:58.522Z,2.95
2018-12-05T00:31:58.508Z,3.07
2018-12-05T00:32:57.962Z,3.06
2018-12-05T00:33:58.486Z,3.09
2018-12-05T00:34:57.913Z,3.07
2018-12-05T00:35:57.907Z,3.09
2018-12-05T00:36:58.129Z,3.1
2018-12-05T00:37:58.361Z,3.09
2018-12-05T00:38:58.350Z,3.07
2018-12-05T00:39:57.850Z,3.09
2018-12-05T00:40:58.044Z,3.06
2018-12-05T00:41:58.277Z,3.06
2018-12-05T00:42:58.254Z,3.06
2018-12-05T00:43:57.973Z,3.09
2018-12-05T00:44:57.950Z,3.07
2018-12-05T00:45:58.193Z,3.1
2018-12-05T00:46:57.668Z,3.05
2018-12-05T00:47:57.890Z,3.1
2018-12-05T00:48:57.870Z,3.16
2018-12-05T00:49:57.843Z,3.1
2018-12-05T00:50:58.096Z,3.18
2018-12-05T00:51:57.805Z,3.1
2018-12-05T00:52:58.026Z,3.2
2018-12-05T00:53:57.767Z,3.13
2018-12-05T00:54:57.993Z,3.16
2018-12-05T00:55:57.963Z,3.13
2018-12-05T00:56:57.443Z,3.23
2018-12-05T00:57:57.926Z,3.21
2018-12-05T00:58:57.948Z,3.18
2018-12-05T00:59:57.628Z,3.18
2018-12-05T01:00:57.604Z,3.12
2018-12-05T01:01:57.842Z,3.31
2018-12-05T01:02:57.821Z,3.2
2018-12-05T01:03:57.795Z,3.25
2018-12-05T01:04:57.516Z,3.28
2018-12-05T01:05:57.494Z,3.27
2018-12-05T01:06:57.481Z,3.25
2018-12-05T01:07:57.191Z,3.21
2018-12-05T01:08:57.683Z,3.25
2018-12-05T01:09:57.404Z,3.33
2018-12-05T01:10:57.387Z,3.3
2018-12-05T01:11:57.367Z,3.18
2018-12-05T01:12:57.338Z,3.18
2018-12-05T01:13:57.568Z,3.21
2018-12-05T01:14:57.069Z,3.13
2018-12-05T01:15:57.546Z,3.23
2018-12-05T01:16:57.253Z,3.13
2018-12-05T01:17:56.984Z,3.13
2018-12-05T01:18:57.220Z,3.16
2018-12-05T01:19:57.440Z,3.16
2018-12-05T01:20:57.433Z,3.16
2018-12-05T01:21:57.450Z,3.18
2018-12-05T01:22:57.382Z,3.2
2018-12-05T01:23:57.108Z,3.2
2018-12-05T01:24:57.384Z,3.15
2018-12-05T01:25:57.075Z,3.07
2018-12-05T01:26:57.242Z,3.1
2018-12-05T01:27:57.021Z,3.15
2018-12-05T01:28:56.740Z,3.12
2018-12-05T01:29:56.971Z,3.16
2018-12-05T01:30:57.206Z,3.18
2018-12-05T01:31:57.229Z,3.18
2018-12-05T01:32:57.160Z,3.13
2018-12-05T01:33:56.890Z,3.12
2018-12-05T01:34:57.129Z,3
2018-12-05T01:35:56.614Z,3.1
2018-12-05T01:36:56.833Z,3.06
2018-12-05T01:37:56.800Z,3.03
2018-12-05T01:38:57.029Z,2.97
2018-12-05T01:39:57.060Z,3
2018-12-05T01:40:56.995Z,2.95
2018-12-05T01:41:56.709Z,3
2018-12-05T01:42:56.431Z,3
2018-12-05T01:43:56.671Z,2.95
2018-12-05T01:44:56.647Z,2.91
2018-12-05T01:45:56.626Z,2.88
2018-12-05T01:46:56.610Z,2.88
2018-12-05T01:47:56.589Z,2.92
2018-12-05T01:48:56.554Z,2.91
2018-12-05T01:49:56.791Z,2.84
2018-12-05T01:50:56.768Z,2.81
2018-12-05T01:51:56.577Z,2.79
2018-12-05T01:52:56.720Z,2.82
2018-12-05T01:53:56.442Z,2.79
2018-12-05T01:54:56.680Z,2.82
2018-12-05T01:55:56.658Z,2.76
2018-12-05T01:56:56.640Z,2.82
2018-12-05T01:57:56.106Z,2.79
2018-12-05T01:58:56.606Z,2.76
2018-12-05T01:59:56.576Z,2.71
2018-12-05T02:00:56.296Z,2.73
2018-12-05T02:01:56.529Z,2.73
2018-12-05T02:02:56.275Z,2.67
2018-12-05T02:03:56.325Z,2.73
2018-12-05T02:04:56.465Z,2.69
2018-12-05T02:05:56.184Z,2.63
2018-12-05T02:06:56.159Z,2.64
2018-12-05T02:07:56.146Z,2.61
2018-12-05T02:08:56.379Z,2.49
2018-12-05T02:09:56.509Z,2.49
2018-12-05T02:10:56.327Z,2.46
2018-12-05T02:11:56.047Z,2.45
2018-12-05T02:12:56.031Z,2.34
2018-12-05T02:13:56.007Z,2.4
2018-12-05T02:14:56.271Z,2.37
2018-12-05T02:15:55.958Z,2.31
2018-12-05T02:16:55.948Z,2.34
2018-12-05T02:17:56.269Z,2.26
2018-12-05T02:18:55.640Z,2.19
2018-12-05T02:19:55.878Z,2.23
2018-12-05T02:20:56.120Z,2.17
2018-12-05T02:21:56.143Z,2.16
2018-12-05T02:22:55.959Z,2.13
2018-12-05T02:23:55.787Z,2.1
2018-12-05T02:24:55.510Z,2.13
2018-12-05T02:25:55.497Z,2.09
2018-12-05T02:26:55.719Z,2.1
2018-12-05T02:27:55.699Z,2.1
2018-12-05T02:28:55.678Z,2.13
2018-12-05T02:29:55.649Z,2.04
2018-12-05T02:30:55.890Z,2.1
2018-12-05T02:31:55.879Z,2.12
2018-12-05T02:32:55.837Z,1.98
2018-12-05T02:33:55.568Z,1.94
2018-12-05T02:34:55.541Z,2.01
2018-12-05T02:35:55.516Z,1.97
2018-12-05T02:36:55.506Z,1.94
2018-12-05T02:37:55.482Z,2.04
2018-12-05T02:38:55.469Z,2.02
2018-12-05T02:39:55.435Z,2.08
2018-12-05T02:40:55.664Z,2.13
2018-12-05T02:41:55.663Z,2.1
2018-12-05T02:42:55.362Z,2.17
2018-12-05T02:43:55.597Z,2.15
2018-12-05T02:44:55.332Z,2.09
2018-12-05T02:45:55.546Z,2.13
2018-12-05T02:46:55.026Z,2.12
2018-12-05T02:47:55.246Z,2.13
2018-12-05T02:48:55.229Z,2.15
2018-12-05T02:49:55.463Z,2.16
2018-12-05T02:50:55.180Z,2.02
2018-12-05T02:51:55.418Z,2.1
2018-12-05T02:52:55.145Z,2.1
2018-12-05T02:53:55.128Z,2.02
2018-12-05T02:54:55.091Z,2.13
2018-12-05T02:55:55.332Z,2.01
2018-12-05T02:56:55.299Z,2.02
2018-12-05T02:57:55.280Z,2.08
2018-12-05T02:58:55.013Z,2.08
2018-12-05T02:59:54.985Z,2.06
2018-12-05T03:00:54.701Z,2.12
2018-12-05T03:01:54.943Z,2.15
2018-12-05T03:02:54.913Z,2.15
2018-12-05T03:03:54.885Z,2.16
2018-12-05T03:04:55.124Z,2.17
2018-12-05T03:05:55.104Z,2.17
2018-12-05T03:06:55.080Z,2.12
2018-12-05T03:07:55.052Z,2.09
2018-12-05T03:08:54.525Z,2.1
2018-12-05T03:09:54.761Z,2.13
2018-12-05T03:10:54.731Z,2.16
2018-12-05T03:11:54.710Z,2.17
2018-12-05T03:12:54.451Z,2.13
2018-12-05T03:13:54.923Z,2.2
2018-12-05T03:14:54.901Z,2.19
2018-12-05T03:15:54.878Z,2.15
2018-12-05T03:16:54.606Z,2.2
2018-12-05T03:17:54.322Z,2.17
2018-12-05T03:18:54.815Z,2.09
2018-12-05T03:19:54.534Z,2.19
2018-12-05T03:20:54.757Z,2.12
2018-12-05T03:21:54.485Z,2.19
2018-12-05T03:22:54.742Z,2.23
2018-12-05T03:23:54.439Z,2.22
2018-12-05T03:24:54.664Z,2.2
2018-12-05T03:25:54.646Z,2.15
2018-12-05T03:26:54.825Z,2.23
2018-12-05T03:27:54.097Z,2.15
2018-12-05T03:28:54.485Z,2.19
2018-12-05T03:29:54.565Z,2.19
2018-12-05T03:30:54.299Z,2.22
2018-12-05T03:31:54.581Z,2.2
2018-12-05T03:32:53.990Z,2.12
2018-12-05T03:33:54.589Z,2.15
2018-12-05T03:34:54.440Z,2.22
2018-12-05T03:35:54.425Z,2.15
2018-12-05T03:36:54.417Z,2.22
2018-12-05T03:37:54.376Z,2.19
2018-12-05T03:38:54.104Z,2.16
2018-12-05T03:39:53.825Z,2.19
2018-12-05T03:40:53.803Z,2.22
2018-12-05T03:41:54.290Z,2.28
2018-12-05T03:42:54.016Z,2.3
2018-12-05T03:43:54.252Z,2.35
2018-12-05T03:44:53.960Z,2.22
2018-12-05T03:45:54.203Z,2.31
2018-12-05T03:46:54.177Z,2.28
2018-12-05T03:47:54.160Z,2.28
2018-12-05T03:48:54.237Z,2.35
2018-12-05T03:49:53.598Z,2.3
2018-12-05T03:50:53.836Z,2.35
2018-12-05T03:51:53.812Z,2.31
2018-12-05T03:52:53.793Z,2.26
2018-12-05T03:53:53.764Z,2.27
2018-12-05T03:54:53.992Z,2.19
2018-12-05T03:55:53.975Z,2.19
2018-12-05T03:56:53.711Z,2.23
2018-12-05T03:57:53.923Z,2.19
2018-12-05T03:58:53.648Z,2.28
2018-12-05T03:59:53.637Z,2.16
2018-12-05T04:00:53.873Z,2.23
2018-12-05T04:01:53.336Z,2.26
2018-12-05T04:02:53.578Z,2.2
2018-12-05T04:03:53.331Z,2.23
2018-12-05T04:04:53.768Z,2.12
2018-12-05T04:05:53.751Z,2.04
2018-12-05T04:06:53.468Z,2.06
2018-12-05T04:07:53.733Z,2.04
2018-12-05T04:08:53.690Z,1.94
2018-12-05T04:09:53.158Z,2.01
2018-12-05T04:10:53.134Z,1.91
2018-12-05T04:11:53.360Z,1.98
2018-12-05T04:12:53.598Z,2.01
2018-12-05T04:13:53.318Z,1.93
2018-12-05T04:14:53.546Z,1.85
2018-12-05T04:15:53.575Z,1.87
2018-12-05T04:16:53.247Z,1.93
2018-12-05T04:17:53.226Z,1.94
2018-12-05T04:18:53.214Z,1.85
2018-12-05T04:19:53.447Z,1.9
2018-12-05T04:20:53.160Z,1.83
2018-12-05T04:21:53.132Z,1.83
2018-12-05T04:22:53.108Z,1.73
2018-12-05T04:23:53.385Z,1.79
2018-12-05T04:24:53.321Z,1.75
2018-12-05T04:25:53.047Z,1.78
2018-12-05T04:26:53.284Z,1.76
2018-12-05T04:27:52.995Z,1.79
2018-12-05T04:28:52.982Z,1.75
2018-12-05T04:29:52.956Z,1.72
2018-12-05T04:30:52.933Z,1.72
2018-12-05T04:31:53.163Z,1.58
2018-12-05T04:32:53.157Z,1.68
2018-12-05T04:33:52.871Z,1.64
2018-12-05T04:34:53.158Z,1.61
2018-12-05T04:35:52.829Z,1.68
2018-12-05T04:36:53.048Z,1.61
2018-12-05T04:37:53.022Z,1.64
2018-12-05T04:38:53.008Z,1.61
2018-12-05T04:39:52.983Z,1.68
2018-12-05T04:40:52.706Z,1.64
2018-12-05T04:41:52.688Z,1.61
2018-12-05T04:42:52.411Z,1.62
2018-12-05T04:43:52.634Z,1.68
2018-12-05T04:44:52.615Z,1.69
2018-12-05T04:45:52.594Z,1.62
2018-12-05T04:46:52.306Z,1.68
2018-12-05T04:47:52.557Z,1.68
2018-12-05T04:48:52.520Z,1.64
2018-12-05T04:49:52.758Z,1.61
2018-12-05T04:50:52.479Z,1.68
2018-12-05T04:51:52.461Z,1.61
2018-12-05T04:52:52.435Z,1.71
2018-12-05T04:53:52.662Z,1.62
2018-12-05T04:54:52.737Z,1.64
2018-12-05T04:55:52.114Z,1.69
2018-12-05T04:56:52.345Z,1.69
2018-12-05T04:57:52.320Z,1.69
2018-12-05T04:58:52.550Z,1.68
2018-12-05T04:59:52.376Z,1.76
2018-12-05T05:00:51.996Z,1.73
2018-12-05T05:01:52.476Z,1.72
2018-12-05T05:02:52.458Z,1.69
2018-12-05T05:03:52.432Z,1.72
2018-12-05T05:04:52.415Z,1.71
2018-12-05T05:05:52.392Z,1.73
2018-12-05T05:06:52.372Z,1.68
2018-12-05T05:07:52.342Z,1.69
2018-12-05T05:08:52.089Z,1.73
2018-12-05T05:09:52.320Z,1.69
2018-12-05T05:10:52.021Z,1.71
2018-12-05T05:11:52.245Z,1.71
2018-12-05T05:12:51.977Z,1.72
2018-12-05T05:13:52.206Z,1.68
2018-12-05T05:14:51.924Z,1.69
2018-12-05T05:15:51.908Z,1.78
2018-12-05T05:16:52.135Z,1.68
2018-12-05T05:17:52.121Z,1.68
2018-12-05T05:18:51.672Z,1.65
2018-12-05T05:19:51.813Z,1.78
2018-12-05T05:20:52.060Z,1.76
2018-12-05T05:21:52.057Z,1.78
2018-12-05T05:22:52.027Z,1.78
2018-12-05T05:23:51.986Z,1.79
2018-12-05T05:24:52.257Z,1.79
2018-12-05T05:25:51.423Z,1.83
2018-12-05T05:26:51.656Z,1.85
2018-12-05T05:27:51.638Z,1.91
2018-12-05T05:28:51.875Z,1.82
2018-12-05T05:29:51.587Z,1.83
2018-12-05T05:30:51.563Z,1.8
2018-12-05T05:31:51.808Z,1.9
2018-12-05T05:32:51.773Z,1.97
2018-12-05T05:33:51.506Z,1.83
2018-12-05T05:34:51.479Z,1.82
2018-12-05T05:35:51.708Z,1.82
2018-12-05T05:36:51.688Z,1.87
2018-12-05T05:37:51.665Z,1.82
2018-12-05T05:38:51.389Z,1.9
2018-12-05T05:39:51.632Z,1.93
2018-12-05T05:40:51.338Z,1.91
2018-12-05T05:41:51.586Z,1.93
2018-12-05T05:42:51.290Z,1.99
2018-12-05T05:43:51.014Z,1.99
2018-12-05T05:44:51.504Z,2.01
2018-12-05T05:45:51.222Z,1.94
2018-12-05T05:46:50.947Z,1.99
2018-12-05T05:47:51.432Z,2.04
2018-12-05T05:48:51.355Z,1.94
2018-12-05T05:49:51.133Z,2.06
2018-12-05T05:50:51.364Z,1.94
2018-12-05T05:51:51.340Z,1.99
2018-12-05T05:52:51.065Z,1.93
2018-12-05T05:53:51.295Z,1.99
2018-12-05T05:54:51.024Z,1.82
2018-12-05T05:55:51.004Z,1.85
2018-12-05T05:56:51.230Z,1.87
2018-12-05T05:57:50.978Z,1.82
2018-12-05T05:58:51.188Z,1.91
2018-12-05T05:59:50.910Z,1.82
2018-12-05T06:00:51.136Z,1.82
2018-12-05T06:01:50.607Z,1.82
2018-12-05T06:02:50.610Z,1.93
2018-12-05T06:03:50.816Z,1.8
2018-12-05T06:04:50.798Z,1.85
2018-12-05T06:05:50.773Z,1.87
2018-12-05T06:06:50.745Z,1.8
2018-12-05T06:07:50.474Z,1.78
2018-12-05T06:08:50.452Z,1.76
2018-12-05T06:09:50.449Z,1.73
2018-12-05T06:10:50.913Z,1.71
2018-12-05T06:11:50.381Z,1.79
2018-12-05T06:12:50.614Z,1.75
2018-12-05T06:13:50.589Z,1.71
2018-12-05T06:14:50.314Z,1.61
2018-12-05T06:15:50.800Z,1.65
2018-12-05T06:16:50.771Z,1.65
2018-12-05T06:17:50.757Z,1.65
2018-12-05T06:18:50.741Z,1.61
2018-12-05T06:19:50.704Z,1.58
2018-12-05T06:20:50.433Z,1.57
2018-12-05T06:21:50.658Z,1.58
2018-12-05T06:22:50.636Z,1.6
2018-12-05T06:23:50.610Z,1.64
2018-12-05T06:24:50.102Z,1.54
2018-12-05T06:25:50.569Z,1.58
2018-12-05T06:26:50.290Z,1.57
2018-12-05T06:27:50.625Z,1.52
2018-12-05T06:28:50.257Z,1.54
2018-12-05T06:29:50.240Z,1.52
2018-12-05T06:30:50.458Z,1.54
2018-12-05T06:31:49.931Z,1.58
2018-12-05T06:32:50.407Z,1.57
2018-12-05T06:33:50.390Z,1.54
2018-12-05T06:34:50.111Z,1.5
2018-12-05T06:35:49.831Z,1.46
2018-12-05T06:36:50.317Z,1.51
2018-12-05T06:37:49.785Z,1.5
2018-12-05T06:38:49.763Z,1.51
2018-12-05T06:39:50.244Z,1.55
2018-12-05T06:40:50.226Z,1.5
2018-12-05T06:41:50.207Z,1.47
2018-12-05T06:42:50.178Z,1.51
2018-12-05T06:43:49.910Z,1.57
2018-12-05T06:44:50.141Z,1.54
2018-12-05T06:45:49.859Z,1.51
2018-12-05T06:46:49.866Z,1.57
2018-12-05T06:47:50.067Z,1.51
2018-12-05T06:48:49.795Z,1.51
2018-12-05T06:49:50.021Z,1.55
2018-12-05T06:50:50.004Z,1.54
2018-12-05T06:51:49.724Z,1.55
2018-12-05T06:52:49.957Z,1.57
2018-12-05T06:53:49.929Z,1.55
2018-12-05T06:54:49.658Z,1.58
2018-12-05T06:55:49.648Z,1.6
2018-12-05T06:56:49.684Z,1.65
2018-12-05T06:57:49.597Z,1.73
2018-12-05T06:58:49.833Z,1.71
2018-12-05T06:59:49.789Z,1.75
2018-12-05T07:00:49.513Z,1.83
2018-12-05T07:01:49.244Z,1.87
2018-12-05T07:02:49.468Z,1.83
2018-12-05T07:03:49.469Z,1.82
2018-12-05T07:04:49.679Z,1.94
2018-12-05T07:05:49.715Z,1.98
2018-12-05T07:06:49.380Z,1.93
2018-12-05T07:07:49.361Z,1.98
2018-12-05T07:08:49.608Z,2.01
2018-12-05T07:09:49.577Z,1.97
2018-12-05T07:10:49.292Z,2.04
2018-12-05T07:11:49.275Z,2.1
2018-12-05T07:12:49.273Z,2.08
2018-12-05T07:13:49.487Z,2.02
2018-12-05T07:14:49.230Z,2.12
2018-12-05T07:15:49.172Z,2.15
2018-12-05T07:16:48.903Z,2.17
2018-12-05T07:17:49.136Z,2.09
2018-12-05T07:18:49.119Z,2.13
2018-12-05T07:19:49.088Z,2.17
2018-12-05T07:20:48.813Z,2.16
2018-12-05T07:21:49.038Z,2.12
2018-12-05T07:22:49.281Z,2.2
2018-12-05T07:23:48.741Z,2.15
2018-12-05T07:24:49.242Z,2.16
2018-12-05T07:25:48.950Z,2.27
2018-12-05T07:26:48.672Z,2.26
2018-12-05T07:27:49.107Z,2.2
2018-12-05T07:28:49.147Z,2.16
2018-12-05T07:29:48.862Z,2.17
2018-12-05T07:30:48.838Z,2.26
2018-12-05T07:31:49.068Z,2.3
2018-12-05T07:32:48.799Z,2.22
2018-12-05T07:33:49.022Z,2.28
2018-12-05T07:34:48.750Z,2.27
2018-12-05T07:35:48.723Z,2.3
2018-12-05T07:36:48.711Z,2.3
2018-12-05T07:37:48.706Z,2.33
2018-12-05T07:38:48.663Z,2.35
2018-12-05T07:39:48.893Z,2.38
2018-12-05T07:40:48.865Z,2.31
2018-12-05T07:41:48.845Z,2.38
2018-12-05T07:42:48.315Z,2.37
2018-12-05T07:43:48.810Z,2.4
2018-12-05T07:44:48.297Z,2.46
2018-12-05T07:45:48.501Z,2.49
2018-12-05T07:46:48.478Z,2.41
2018-12-05T07:47:48.711Z,2.4
2018-12-05T07:48:48.691Z,2.48
2018-12-05T07:49:48.433Z,2.61
2018-12-05T07:50:48.645Z,2.45
2018-12-05T07:51:48.625Z,2.51
2018-12-05T07:52:48.344Z,2.51
2018-12-05T07:53:48.575Z,2.41
2018-12-05T07:54:48.044Z,2.56
2018-12-05T07:55:48.530Z,2.55
2018-12-05T07:56:48.505Z,2.64
2018-12-05T07:57:48.235Z,2.64
2018-12-05T07:58:48.211Z,2.64
2018-12-05T07:59:48.445Z,2.66
2018-12-05T08:00:48.423Z,2.59
2018-12-05T08:01:48.395Z,2.66
2018-12-05T08:02:48.379Z,2.74
2018-12-05T08:03:48.359Z,2.73
2018-12-05T08:04:48.328Z,2.71
2018-12-05T08:05:47.803Z,2.73
2018-12-05T08:06:48.285Z,2.77
2018-12-05T08:07:48.261Z,2.69
2018-12-05T08:08:47.985Z,2.77
2018-12-05T08:09:47.968Z,2.77
2018-12-05T08:10:48.201Z,2.73
2018-12-05T08:11:48.244Z,2.74
2018-12-05T08:12:48.153Z,2.74
2018-12-05T08:13:47.884Z,2.77
2018-12-05T08:14:47.853Z,2.79
2018-12-05T08:15:47.835Z,2.79
2018-12-05T08:16:47.846Z,2.81
2018-12-05T08:17:47.790Z,2.85
2018-12-05T08:18:47.512Z,2.88
2018-12-05T08:19:48.313Z,2.92
2018-12-05T08:20:48.002Z,2.92
2018-12-05T08:21:47.959Z,2.88
2018-12-05T08:22:47.687Z,2.89
2018-12-05T08:23:47.659Z,2.87
2018-12-05T08:24:47.904Z,3.05
2018-12-05T08:25:47.626Z,2.95
2018-12-05T08:26:47.338Z,2.92
2018-12-05T08:27:47.329Z,2.98
2018-12-05T08:28:47.549Z,3.1
2018-12-05T08:29:47.785Z,3.15
2018-12-05T08:30:47.708Z,3.09
2018-12-05T08:31:47.477Z,3.13
2018-12-05T08:32:47.715Z,3.16
2018-12-05T08:33:47.439Z,3.24
2018-12-05T08:34:47.417Z,3.18
2018-12-05T08:35:47.399Z,3.13
2018-12-05T08:36:47.198Z,3.18
2018-12-05T08:37:47.607Z,3.16
2018-12-05T08:38:47.596Z,3.2
2018-12-05T08:39:47.601Z,3.27
2018-12-05T08:40:47.281Z,3.27
2018-12-05T08:41:47.520Z,3.23
2018-12-05T08:42:47.442Z,3.25
2018-12-05T08:43:49.100Z,3.25
2018-12-05T08:44:47.454Z,3.27
2018-12-05T08:45:47.432Z,3.24
2018-12-05T08:46:47.153Z,3.39
2018-12-05T08:47:47.236Z,3.34
2018-12-05T08:48:47.119Z,3.42
2018-12-05T08:49:47.346Z,3.49
2018-12-05T08:50:47.072Z,3.5
2018-12-05T08:51:47.326Z,3.5
2018-12-05T08:52:47.277Z,3.54
2018-12-05T08:53:47.258Z,3.6
2018-12-05T08:54:47.240Z,3.57
2018-12-05T08:55:46.967Z,3.49
2018-12-05T08:56:47.191Z,3.5
2018-12-05T08:57:47.175Z,3.53
2018-12-05T08:58:47.164Z,3.54
2018-12-05T08:59:46.911Z,3.62
2018-12-05T09:00:46.865Z,3.57
2018-12-05T09:01:46.826Z,3.54
2018-12-05T09:02:46.810Z,3.61
2018-12-05T09:03:46.793Z,3.6
2018-12-05T09:04:46.516Z,3.72
2018-12-05T09:05:46.496Z,3.75
2018-12-05T09:06:46.985Z,3.75
2018-12-05T09:07:46.954Z,3.75
2018-12-05T09:08:46.678Z,3.88
2018-12-05T09:09:46.409Z,3.88
2018-12-05T09:10:46.650Z,3.9
2018-12-05T09:11:46.873Z,3.94
2018-12-05T09:12:46.852Z,3.97
2018-12-05T09:13:46.579Z,4
2018-12-05T09:14:46.561Z,3.96
2018-12-05T09:15:46.803Z,4.03
2018-12-05T09:16:46.265Z,4.08
2018-12-05T09:17:46.484Z,3.97
2018-12-05T09:18:46.496Z,4.07
2018-12-05T09:19:46.700Z,4.06
2018-12-05T09:20:46.433Z,4.18
2018-12-05T09:21:46.425Z,4.25
2018-12-05T09:22:46.790Z,4.22
2018-12-05T09:23:46.625Z,4.19
2018-12-05T09:24:46.602Z,4.24
2018-12-05T09:25:46.282Z,4.21
2018-12-05T09:26:46.308Z,4.26
2018-12-05T09:27:46.489Z,4.26
2018-12-05T09:28:46.006Z,4.32
2018-12-05T09:29:45.989Z,4.42
2018-12-05T09:30:46.213Z,4.39
2018-12-05T09:31:45.945Z,4.36
2018-12-05T09:32:46.179Z,4.29
2018-12-05T09:33:46.415Z,4.32
2018-12-05T09:34:46.408Z,4.39
2018-12-05T09:35:46.372Z,4.43
2018-12-05T09:36:46.093Z,4.5
2018-12-05T09:37:46.074Z,4.54
2018-12-05T09:38:46.250Z,4.52
2018-12-05T09:39:45.805Z,4.57
2018-12-05T09:40:46.010Z,4.61
2018-12-05T09:41:45.992Z,4.62
2018-12-05T09:42:45.719Z,4.59
2018-12-05T09:43:45.993Z,4.67
2018-12-05T09:44:45.931Z,4.7
2018-12-05T09:45:46.163Z,4.7
2018-12-05T09:46:46.145Z,4.83
2018-12-05T09:47:46.125Z,4.86
2018-12-05T09:48:45.595Z,4.84
2018-12-05T09:49:45.829Z,4.92
2018-12-05T09:50:46.061Z,4.88
2018-12-05T09:51:45.788Z,4.96
2018-12-05T09:52:45.772Z,4.92
2018-12-05T09:53:45.752Z,4.99
2018-12-05T09:54:45.989Z,5.07
2018-12-05T09:55:45.445Z,5.12
2018-12-05T09:56:45.936Z,5.13
2018-12-05T09:57:45.667Z,5.2
2018-12-05T09:58:45.910Z,5.16
2018-12-05T09:59:45.882Z,5.22
2018-12-05T10:00:45.609Z,5.38
2018-12-05T10:01:45.581Z,5.35
2018-12-05T10:02:45.819Z,5.48
2018-12-05T10:03:45.546Z,5.48
2018-12-05T10:04:45.792Z,5.49
2018-12-05T10:05:45.762Z,5.57
2018-12-05T10:06:45.232Z,5.77
2018-12-05T10:07:45.473Z,5.74
2018-12-05T10:08:45.701Z,5.83
2018-12-05T10:09:45.854Z,6.01
2018-12-05T10:10:45.405Z,6.07
2018-12-05T10:11:45.170Z,6.1
2018-12-05T10:12:45.365Z,6.28
2018-12-05T10:13:45.351Z,6.38
2018-12-05T10:14:45.069Z,6.54
2018-12-05T10:15:45.312Z,6.54
2018-12-05T10:16:45.574Z,6.54
2018-12-05T10:17:45.533Z,6.59
2018-12-05T10:18:45.515Z,6.61
2018-12-05T10:19:44.974Z,6.71
2018-12-05T10:20:45.216Z,6.69
2018-12-05T10:21:45.397Z,6.72
2018-12-05T10:22:45.178Z,6.71
2018-12-05T10:23:44.916Z,6.71
2018-12-05T10:24:45.144Z,6.65
2018-12-05T10:25:45.151Z,6.62
2018-12-05T10:26:45.103Z,6.61
2018-12-05T10:27:45.445Z,6.58
2018-12-05T10:28:45.319Z,6.62
2018-12-05T10:29:45.048Z,6.54
2018-12-05T10:30:45.252Z,6.51
2018-12-05T10:31:48.957Z,6.58
2018-12-05T10:32:44.994Z,6.62
2018-12-05T10:33:45.254Z,6.61
2018-12-05T10:34:44.952Z,6.61
2018-12-05T10:35:44.941Z,6.72
2018-12-05T10:36:44.923Z,6.79
2018-12-05T10:37:45.159Z,6.73
2018-12-05T10:38:44.883Z,6.81
2018-12-05T10:39:45.124Z,6.91
2018-12-05T10:40:44.585Z,6.94
2018-12-05T10:41:44.572Z,6.99
2018-12-05T10:42:44.834Z,6.98
2018-12-05T10:43:45.041Z,7.09
2018-12-05T10:44:45.020Z,7.15
2018-12-05T10:45:44.745Z,7.19
2018-12-05T10:46:44.738Z,7.31
2018-12-05T10:47:44.968Z,7.31
2018-12-05T10:48:45.596Z,7.29
2018-12-05T10:49:44.765Z,7.32
2018-12-05T10:50:44.916Z,7.29
2018-12-05T10:51:44.650Z,7.34
2018-12-05T10:52:44.619Z,7.31
2018-12-05T10:53:44.607Z,7.31
2018-12-05T10:54:44.588Z,7.29
2018-12-05T10:55:44.822Z,7.32
2018-12-05T10:56:45.916Z,7.31
2018-12-05T10:57:44.791Z,7.34
2018-12-05T10:58:44.538Z,7.22
2018-12-05T10:59:44.503Z,7.23
2018-12-05T11:00:44.516Z,7.22
2018-12-05T11:01:44.460Z,7.29
2018-12-05T11:02:44.443Z,7.38
2018-12-05T11:03:44.679Z,7.37
2018-12-05T11:04:44.411Z,7.32
2018-12-05T11:05:44.397Z,7.45
2018-12-05T11:06:44.381Z,7.44
2018-12-05T11:07:44.365Z,7.41
2018-12-05T11:08:44.339Z,7.4
2018-12-05T11:09:44.323Z,7.41
2018-12-05T11:10:44.049Z,7.38
2018-12-05T11:11:44.285Z,7.4
2018-12-05T11:12:44.564Z,7.47
2018-12-05T11:13:44.501Z,7.47
2018-12-05T11:14:44.483Z,7.5
2018-12-05T11:15:44.476Z,7.49
2018-12-05T11:16:44.455Z,7.44
2018-12-05T11:17:44.175Z,7.5
2018-12-05T11:18:43.910Z,7.44
2018-12-05T11:19:44.399Z,7.41
2018-12-05T11:20:44.381Z,7.44
2018-12-05T11:21:49.652Z,7.41
2018-12-05T11:22:44.088Z,7.38
2018-12-05T11:23:44.324Z,7.49
2018-12-05T11:24:44.055Z,7.35
2018-12-05T11:25:44.025Z,7.38
2018-12-05T11:26:44.053Z,7.38
2018-12-05T11:27:44.206Z,7.45
2018-12-05T11:28:44.241Z,7.37
2018-12-05T11:29:45.151Z,7.42
2018-12-05T11:30:44.212Z,7.44
2018-12-05T11:31:43.670Z,7.52
2018-12-05T11:32:43.906Z,7.44
2018-12-05T11:33:43.886Z,7.49
2018-12-05T11:34:44.127Z,7.49
2018-12-05T11:35:43.856Z,7.45
2018-12-05T11:36:44.086Z,7.45
2018-12-05T11:37:44.180Z,7.49
2018-12-05T11:38:44.043Z,7.49
2018-12-05T11:39:43.522Z,7.44
2018-12-05T11:40:43.806Z,7.49
2018-12-05T11:41:43.990Z,7.42
2018-12-05T11:42:43.971Z,7.45
2018-12-05T11:43:43.955Z,7.55
2018-12-05T11:44:43.934Z,7.52
2018-12-05T11:45:43.921Z,7.49
2018-12-05T11:46:43.903Z,7.52
2018-12-05T11:47:43.884Z,7.53
2018-12-05T11:48:43.945Z,7.56
2018-12-05T11:49:43.595Z,7.55
2018-12-05T11:50:43.832Z,7.53
2018-12-05T11:51:43.553Z,7.62
2018-12-05T11:52:43.789Z,7.55
2018-12-05T11:53:43.512Z,7.59
2018-12-05T11:54:43.574Z,7.6
2018-12-05T11:55:43.225Z,7.49
2018-12-05T11:56:43.523Z,7.62
2018-12-05T11:57:43.514Z,7.6
2018-12-05T11:58:43.428Z,7.62
2018-12-05T11:59:43.154Z,7.66
2018-12-05T12:00:43.844Z,7.58
2018-12-05T12:01:43.376Z,7.63
2018-12-05T12:02:43.600Z,7.69
2018-12-05T12:03:43.577Z,7.67
2018-12-05T12:04:43.582Z,7.62
2018-12-05T12:05:43.557Z,7.67
2018-12-05T12:06:43.603Z,7.71
2018-12-05T12:07:43.544Z,7.66
2018-12-05T12:08:43.582Z,7.69
2018-12-05T12:09:43.213Z,7.74
2018-12-05T12:10:43.231Z,7.66
2018-12-05T12:11:43.434Z,7.74
2018-12-05T12:12:43.449Z,7.72
2018-12-05T12:13:43.140Z,7.74
2018-12-05T12:14:42.869Z,7.77
2018-12-05T12:15:43.362Z,7.74
2018-12-05T12:16:42.825Z,7.74
2018-12-05T12:17:44.371Z,7.74
2018-12-05T12:18:43.043Z,7.71
2018-12-05T12:19:43.280Z,7.75
2018-12-05T12:20:42.768Z,7.82
2018-12-05T12:21:42.990Z,7.75
2018-12-05T12:22:43.280Z,7.84
2018-12-05T12:23:42.959Z,7.82
2018-12-05T12:24:43.205Z,7.77
2018-12-05T12:25:43.180Z,7.85
2018-12-05T12:26:43.220Z,7.87
2018-12-05T12:27:43.130Z,7.92
2018-12-05T12:28:43.368Z,7.89
2018-12-05T12:29:42.854Z,8.02
2018-12-05T12:30:43.072Z,7.99
2018-12-05T12:31:43.068Z,8.02
2018-12-05T12:32:42.790Z,8.03
2018-12-05T12:33:42.545Z,8.04
2018-12-05T12:34:42.747Z,8.03
2018-12-05T12:35:42.734Z,8.1
2018-12-05T12:36:42.810Z,8.14
2018-12-05T12:37:42.944Z,8.1
2018-12-05T12:38:42.893Z,8.14
2018-12-05T12:39:42.955Z,8.15
2018-12-05T12:40:42.632Z,8.12
2018-12-05T12:41:42.634Z,8.17
2018-12-05T12:42:42.851Z,8.21
2018-12-05T12:43:42.584Z,8.28
2018-12-05T12:44:42.406Z,8.32
2018-12-05T12:45:42.548Z,8.26
2018-12-05T12:46:42.523Z,8.3
2018-12-05T12:47:42.762Z,8.32
2018-12-05T12:48:44.353Z,8.29
2018-12-05T12:49:42.720Z,8.33
2018-12-05T12:50:42.469Z,8.35
2018-12-05T12:51:42.687Z,8.33
2018-12-05T12:52:42.426Z,8.36
2018-12-05T12:53:42.396Z,8.37
2018-12-05T12:54:42.393Z,8.36
2018-12-05T12:55:42.418Z,8.35
2018-12-05T12:56:42.605Z,8.39
2018-12-05T12:57:42.589Z,8.3
2018-12-05T12:58:42.308Z,8.42
2018-12-05T12:59:42.292Z,8.44
2018-12-05T13:00:42.528Z,8.42
2018-12-05T13:01:42.510Z,8.4
2018-12-05T13:02:42.485Z,8.48
2018-12-05T13:03:42.280Z,8.42
2018-12-05T13:04:42.218Z,8.44
2018-12-05T13:05:42.524Z,8.4
2018-12-05T13:06:42.416Z,8.44
2018-12-05T13:07:42.404Z,8.33
2018-12-05T13:08:42.142Z,8.35
2018-12-05T13:09:42.119Z,8.4
2018-12-05T13:10:42.356Z,8.39
2018-12-05T13:11:42.324Z,8.35
2018-12-05T13:12:42.323Z,8.39
2018-12-05T13:13:42.320Z,8.33
2018-12-05T13:14:42.091Z,8.29
2018-12-05T13:15:42.020Z,8.3
2018-12-05T13:16:41.736Z,8.33
2018-12-05T13:17:42.221Z,8.3
2018-12-05T13:18:41.952Z,8.33
2018-12-05T13:19:41.926Z,8.3
2018-12-05T13:20:42.162Z,8.3
2018-12-05T13:21:41.915Z,8.32